createdAt,value
2019-06-08T00:02:12.592Z,19.70
2019-06-08T00:04:41.598Z,19.70
2019-06-08T00:07:10.901Z,19.60
2019-06-08T00:09:40.195Z,19.60
2019-06-08T00:12:09.571Z,19.50
2019-06-08T00:14:38.302Z,19.50
2019-06-08T00:17:07.103Z,19.50
2019-06-08T00:19:35.858Z,19.50
2019-06-08T00:22:06.818Z,19.50
2019-06-08T00:24:35.818Z,19.50
2019-06-08T00:27:08.837Z,19.50
2019-06-08T00:29:38.100Z,19.50
2019-06-08T00:32:06.882Z,19.40
2019-06-08T00:34:35.823Z,19.40
2019-06-08T00:37:05.130Z,19.40
2019-06-08T00:39:33.854Z,19.30
2019-06-08T00:42:02.659Z,19.20
2019-06-08T00:44:31.484Z,19.10
2019-06-08T00:47:00.457Z,19.00
2019-06-08T00:49:29.535Z,18.90
2019-06-08T00:51:58.879Z,19.00
2019-06-08T00:54:29.723Z,19.00
2019-06-08T00:56:58.706Z,19.10
2019-06-08T00:59:27.439Z,19.10
2019-06-08T01:01:56.284Z,19.10
2019-06-08T01:04:25.047Z,19.10
2019-06-08T01:06:54.086Z,19.10
2019-06-08T01:09:22.835Z,19.00
2019-06-08T01:11:51.556Z,19.00
2019-06-08T01:14:20.890Z,18.90
2019-06-08T01:16:49.668Z,18.90
2019-06-08T01:19:19.198Z,18.90
2019-06-08T01:21:48.373Z,19.00
2019-06-08T01:24:17.188Z,18.90
2019-06-08T01:26:45.893Z,18.90
2019-06-08T01:29:14.610Z,18.70
2019-06-08T01:31:43.349Z,18.60
2019-06-08T01:34:12.049Z,18.70
2019-06-08T01:36:40.751Z,18.70
2019-06-08T01:39:09.480Z,18.70
2019-06-08T01:41:38.193Z,18.70
2019-06-08T01:44:07.025Z,18.50
2019-06-08T01:46:36.103Z,18.40
2019-06-08T01:49:05.036Z,18.50
2019-06-08T01:51:33.749Z,18.50
2019-06-08T01:54:02.610Z,18.60
2019-06-08T01:56:31.325Z,18.60
2019-06-08T01:59:00.121Z,18.60
2019-06-08T02:01:29.932Z,18.70
2019-06-08T02:03:59.078Z,18.60
2019-06-08T02:06:28.420Z,18.60
2019-06-08T02:08:57.690Z,18.50
2019-06-08T02:11:26.713Z,18.40
2019-06-08T02:13:55.715Z,18.40
2019-06-08T02:16:25.668Z,18.40
2019-06-08T02:18:54.584Z,18.30
2019-06-08T02:21:23.373Z,18.20
2019-06-08T02:23:52.174Z,18.20
2019-06-08T02:26:20.912Z,18.30
2019-06-08T02:28:49.842Z,18.00
2019-06-08T02:31:18.961Z,18.00
2019-06-08T02:33:47.788Z,18.00
2019-06-08T02:36:16.599Z,18.10
2019-06-08T02:38:45.407Z,18.10
2019-06-08T02:41:14.142Z,18.20
2019-06-08T02:43:43.790Z,18.20
2019-06-08T02:46:12.570Z,18.10
2019-06-08T02:49:02.679Z,18.10
2019-06-08T02:51:13.468Z,18.00
2019-06-08T02:53:42.910Z,18.00
2019-06-08T02:56:14.907Z,17.80
2019-06-08T02:58:44.073Z,17.90
2019-06-08T03:01:14.827Z,17.90
2019-06-08T03:03:45.366Z,18.00
2019-06-08T03:06:15.270Z,18.10
2019-06-08T03:08:46.276Z,18.10
2019-06-08T03:11:18.062Z,18.10
2019-06-08T03:13:48.740Z,18.10
2019-06-08T03:16:17.810Z,18.10
2019-06-08T03:18:46.542Z,18.10
2019-06-08T03:21:15.506Z,18.10
2019-06-08T03:23:44.262Z,18.10
2019-06-08T03:26:13.002Z,18.10
2019-06-08T03:28:44.088Z,18.00
2019-06-08T03:31:12.375Z,18.00
2019-06-08T03:33:50.827Z,17.80
2019-06-08T03:36:11.601Z,17.90
2019-06-08T03:38:42.323Z,18.00
2019-06-08T03:41:11.108Z,17.80
2019-06-08T03:43:42.273Z,17.90
2019-06-08T03:46:11.321Z,17.90
2019-06-08T03:48:41.691Z,17.90
2019-06-08T03:51:10.688Z,18.00
2019-06-08T03:53:40.060Z,17.80
2019-06-08T03:56:09.371Z,17.90
2019-06-08T03:58:38.990Z,18.00
2019-06-08T04:01:09.403Z,18.00
2019-06-08T04:03:39.771Z,18.10
2019-06-08T04:06:08.642Z,18.20
2019-06-08T04:08:37.902Z,18.20
2019-06-08T04:11:07.878Z,18.10
2019-06-08T04:13:37.678Z,18.10
2019-06-08T04:16:07.041Z,18.10
2019-06-08T04:18:35.756Z,18.10
2019-06-08T04:21:04.745Z,18.20
2019-06-08T04:23:33.458Z,18.10
2019-06-08T04:26:02.286Z,18.10
2019-06-08T04:28:31.312Z,18.20
2019-06-08T04:31:00.080Z,18.20
2019-06-08T04:33:29.206Z,18.20
2019-06-08T04:35:58.325Z,18.10
2019-06-08T04:38:27.118Z,18.10
2019-06-08T04:40:55.972Z,18.10
2019-06-08T04:43:24.722Z,18.20
2019-06-08T04:45:53.559Z,18.20
2019-06-08T04:48:23.867Z,18.20
2019-06-08T04:50:52.623Z,18.10
2019-06-08T04:53:21.351Z,18.10
2019-06-08T04:55:50.087Z,18.00
2019-06-08T04:58:18.910Z,18.20
2019-06-08T05:00:50.215Z,18.10
2019-06-08T05:03:19.048Z,18.00
2019-06-08T05:05:51.131Z,18.10
2019-06-08T05:08:20.012Z,18.10
2019-06-08T05:10:49.728Z,18.00
2019-06-08T05:13:18.961Z,18.10
2019-06-08T05:15:50.211Z,18.10
2019-06-08T05:18:19.404Z,18.10
2019-06-08T05:20:50.846Z,18.10
2019-06-08T05:23:18.998Z,18.10
2019-06-08T05:25:47.833Z,18.20
2019-06-08T05:28:17.179Z,18.10
2019-06-08T05:30:46.006Z,18.30
2019-06-08T05:33:16.289Z,18.20
2019-06-08T05:35:45.524Z,18.20
2019-06-08T05:38:14.406Z,18.20
2019-06-08T05:40:43.721Z,18.20
2019-06-08T05:43:12.605Z,18.10
2019-06-08T05:45:41.636Z,18.10
2019-06-08T05:48:10.354Z,18.20
2019-06-08T05:50:54.587Z,18.40
2019-06-08T05:53:09.541Z,18.70
2019-06-08T05:55:39.692Z,18.70
2019-06-08T05:58:08.734Z,18.70
2019-06-08T06:00:37.824Z,18.80
2019-06-08T06:03:06.652Z,18.70
2019-06-08T06:05:35.385Z,18.50
2019-06-08T06:08:16.170Z,18.40
2019-06-08T06:10:34.674Z,18.50
2019-06-08T06:13:03.462Z,18.70
2019-06-08T06:15:32.216Z,18.70
2019-06-08T06:18:01.514Z,18.70
2019-06-08T06:20:30.264Z,18.50
2019-06-08T06:23:00.101Z,18.60
2019-06-08T06:25:29.801Z,18.60
2019-06-08T06:27:58.538Z,18.60
2019-06-08T06:30:27.949Z,18.50
2019-06-08T06:32:56.974Z,18.40
2019-06-08T06:35:25.841Z,18.40
2019-06-08T06:37:54.573Z,18.20
2019-06-08T06:40:23.505Z,18.30
2019-06-08T06:42:55.291Z,18.20
2019-06-08T06:45:24.588Z,18.20
2019-06-08T06:47:53.346Z,18.20
2019-06-08T06:50:22.430Z,18.00
2019-06-08T06:52:51.337Z,18.00
2019-06-08T06:55:20.046Z,18.00
2019-06-08T06:57:51.423Z,17.80
2019-06-08T07:00:29.951Z,17.70
2019-06-08T07:02:59.317Z,17.60
2019-06-08T07:05:28.043Z,17.50
2019-06-08T07:07:57.223Z,17.60
2019-06-08T07:10:26.650Z,17.80
2019-06-08T07:12:55.383Z,18.20
2019-06-08T07:15:27.991Z,18.20
2019-06-08T07:17:58.529Z,18.30
2019-06-08T07:20:27.757Z,18.30
2019-06-08T07:22:56.490Z,18.70
2019-06-08T07:25:25.797Z,18.90
2019-06-08T07:27:59.185Z,19.10
2019-06-08T07:30:28.187Z,19.40
2019-06-08T07:32:56.891Z,19.30
2019-06-08T07:35:29.096Z,19.00
2019-06-08T07:37:59.598Z,19.20
2019-06-08T07:40:28.684Z,19.40
2019-06-08T07:42:57.412Z,19.70
2019-06-08T07:45:26.432Z,19.60
2019-06-08T07:47:57.041Z,19.70
2019-06-08T07:50:25.926Z,19.70
2019-06-08T07:52:54.715Z,19.80
2019-06-08T07:55:23.523Z,19.20
2019-06-08T07:57:53.965Z,19.50
2019-06-08T08:00:22.949Z,19.30
2019-06-08T08:02:52.085Z,19.50
2019-06-08T08:05:20.892Z,19.70
2019-06-08T08:07:50.254Z,19.40
2019-06-08T08:10:19.683Z,19.30
2019-06-08T08:12:49.226Z,19.30
2019-06-08T08:15:19.078Z,19.10
2019-06-08T08:17:49.062Z,19.10
2019-06-08T08:20:18.131Z,19.10
2019-06-08T08:22:49.222Z,19.20
2019-06-08T08:25:19.496Z,19.60
2019-06-08T08:27:50.302Z,19.60
2019-06-08T08:30:20.350Z,19.70
2019-06-08T08:32:50.825Z,20.00
2019-06-08T08:35:20.324Z,19.90
2019-06-08T08:37:53.086Z,20.30
2019-06-08T08:40:20.039Z,20.30
2019-06-08T08:42:50.566Z,20.30
2019-06-08T08:45:20.157Z,20.20
2019-06-08T08:47:50.745Z,20.20
2019-06-08T08:50:19.533Z,20.00
2019-06-08T08:52:51.273Z,20.00
2019-06-08T08:55:21.025Z,19.10
2019-06-08T08:57:51.703Z,19.60
2019-06-08T09:00:21.333Z,19.60
2019-06-08T09:03:10.730Z,19.70
2019-06-08T09:05:20.985Z,18.90
2019-06-08T09:07:52.091Z,18.60
2019-06-08T09:10:21.379Z,19.10
2019-06-08T09:12:52.132Z,19.30
2019-06-08T09:15:20.821Z,20.00
2019-06-08T09:17:49.549Z,20.30
2019-06-08T09:20:19.652Z,20.40
2019-06-08T09:22:56.568Z,20.50
2019-06-08T09:25:19.104Z,20.80
2019-06-08T09:27:48.402Z,20.90
2019-06-08T09:30:18.278Z,21.00
2019-06-08T09:32:47.838Z,21.10
2019-06-08T09:35:18.745Z,20.90
2019-06-08T09:37:48.552Z,20.90
2019-06-08T09:40:17.935Z,21.10
2019-06-08T09:42:46.710Z,20.60
2019-06-08T09:45:18.047Z,20.70
2019-06-08T09:47:47.815Z,20.40
2019-06-08T09:50:18.557Z,20.60
2019-06-08T09:53:02.423Z,20.10
2019-06-08T09:55:21.425Z,20.70
2019-06-08T09:57:50.251Z,21.00
2019-06-08T10:00:22.216Z,21.40
2019-06-08T10:02:50.197Z,21.30
2019-06-08T10:05:19.094Z,21.30
2019-06-08T10:07:48.681Z,21.40
2019-06-08T10:10:18.303Z,21.30
2019-06-08T10:12:48.395Z,21.00
2019-06-08T10:15:21.716Z,21.20
2019-06-08T10:17:50.693Z,21.20
2019-06-08T10:20:19.875Z,21.50
2019-06-08T10:22:50.524Z,21.10
2019-06-08T10:25:19.226Z,21.50
2019-06-08T10:27:48.258Z,21.50
2019-06-08T10:30:18.666Z,21.50
2019-06-08T10:32:48.007Z,21.40
2019-06-08T10:35:21.006Z,21.60
2019-06-08T10:37:51.190Z,21.50
2019-06-08T10:40:19.717Z,22.10
2019-06-08T10:42:48.595Z,22.20
2019-06-08T10:45:18.908Z,22.50
2019-06-08T10:47:48.039Z,22.20
2019-06-08T10:50:19.224Z,22.00
2019-06-08T10:52:48.481Z,21.50
2019-06-08T10:55:18.144Z,21.60
2019-06-08T10:57:47.840Z,21.50
2019-06-08T11:00:24.033Z,21.80
2019-06-08T11:02:52.324Z,22.00
2019-06-08T11:05:21.722Z,21.70
2019-06-08T11:07:50.483Z,21.50
2019-06-08T11:10:19.421Z,21.70
2019-06-08T11:12:48.636Z,21.80
2019-06-08T11:15:17.736Z,21.90
2019-06-08T11:17:49.565Z,21.60
2019-06-08T11:20:18.378Z,21.90
2019-06-08T11:22:49.806Z,21.90
2019-06-08T11:25:19.861Z,22.10
2019-06-08T11:27:48.425Z,22.10
2019-06-08T11:30:23.461Z,21.90
2019-06-08T11:32:48.869Z,21.90
2019-06-08T11:35:18.160Z,22.10
2019-06-08T11:37:48.837Z,22.20
2019-06-08T11:40:20.486Z,22.00
2019-06-08T11:42:48.496Z,22.00
2019-06-08T11:45:17.970Z,22.10
2019-06-08T11:47:48.507Z,22.00
2019-06-08T11:50:22.505Z,22.00
2019-06-08T11:52:51.330Z,22.40
2019-06-08T11:55:20.114Z,22.30
2019-06-08T11:57:49.962Z,22.30
2019-06-08T12:00:31.194Z,22.60
2019-06-08T12:03:02.225Z,22.60
2019-06-08T12:05:31.182Z,22.70
2019-06-08T12:07:59.978Z,22.60
2019-06-08T12:10:29.033Z,22.50
2019-06-08T12:12:58.193Z,22.00
2019-06-08T12:15:28.659Z,22.50
2019-06-08T12:17:58.662Z,22.70
2019-06-08T12:20:28.058Z,22.50
2019-06-08T12:22:56.946Z,22.90
2019-06-08T12:25:25.719Z,23.20
2019-06-08T12:27:54.538Z,22.90
2019-06-08T12:30:26.269Z,22.00
2019-06-08T12:32:54.047Z,22.50
2019-06-08T12:35:22.785Z,22.50
2019-06-08T12:37:51.864Z,22.10
2019-06-08T12:40:21.165Z,22.10
2019-06-08T12:42:49.894Z,22.30
2019-06-08T12:45:20.433Z,22.50
2019-06-08T12:47:49.331Z,22.70
2019-06-08T12:50:18.429Z,23.10
2019-06-08T12:52:47.829Z,23.40
2019-06-08T12:55:22.621Z,22.80
2019-06-08T12:57:48.443Z,22.70
2019-06-08T13:00:20.112Z,22.80
2019-06-08T13:02:52.143Z,22.10
2019-06-08T13:05:22.856Z,22.80
2019-06-08T13:07:51.494Z,23.30
2019-06-08T13:10:24.071Z,23.70
2019-06-08T13:12:50.865Z,23.70
2019-06-08T13:15:21.869Z,23.80
2019-06-08T13:17:50.645Z,23.80
2019-06-08T13:20:22.318Z,23.90
2019-06-08T13:22:51.270Z,22.90
2019-06-08T13:25:36.130Z,22.90
2019-06-08T13:27:50.523Z,23.10
2019-06-08T13:30:25.939Z,22.70
2019-06-08T13:32:50.784Z,23.10
2019-06-08T13:35:22.327Z,23.40
2019-06-08T13:37:50.109Z,23.60
2019-06-08T13:40:21.899Z,23.60
2019-06-08T13:42:51.281Z,23.70
2019-06-08T13:45:21.763Z,22.20
2019-06-08T13:47:51.063Z,23.40
2019-06-08T13:50:22.221Z,23.50
2019-06-08T13:52:51.274Z,23.80
2019-06-08T13:55:37.645Z,24.30
2019-06-08T13:57:50.596Z,24.20
2019-06-08T14:00:28.669Z,24.20
2019-06-08T14:02:57.854Z,24.20
2019-06-08T14:05:31.256Z,24.00
2019-06-08T14:08:00.264Z,24.80
2019-06-08T14:10:38.520Z,24.90
2019-06-08T14:13:08.128Z,24.90
2019-06-08T14:15:38.057Z,24.60
2019-06-08T14:18:08.738Z,24.80
2019-06-08T14:20:38.567Z,24.60
2019-06-08T14:23:09.168Z,24.90
2019-06-08T14:25:49.774Z,25.10
2019-06-08T14:28:09.087Z,24.90
2019-06-08T14:30:37.984Z,25.30
2019-06-08T14:33:08.243Z,25.50
2019-06-08T14:35:37.401Z,25.60
2019-06-08T14:38:06.180Z,25.80
2019-06-08T14:40:37.433Z,25.80
2019-06-08T14:43:05.780Z,26.00
2019-06-08T14:45:37.642Z,26.20
2019-06-08T14:48:05.609Z,26.30
2019-06-08T14:50:34.665Z,26.10
2019-06-08T14:53:03.380Z,26.20
2019-06-08T14:55:34.218Z,26.00
2019-06-08T14:58:03.169Z,26.30
2019-06-08T15:00:32.041Z,26.50
2019-06-08T15:03:01.135Z,26.80
2019-06-08T15:05:32.199Z,26.90
2019-06-08T15:08:01.087Z,26.90
2019-06-08T15:10:31.280Z,26.80
2019-06-08T15:13:00.165Z,27.00
2019-06-08T15:15:31.777Z,27.20
2019-06-08T15:17:59.429Z,26.80
2019-06-08T15:20:28.684Z,27.30
2019-06-08T15:22:58.080Z,27.00
2019-06-08T15:25:29.533Z,26.90
2019-06-08T15:28:00.718Z,27.40
2019-06-08T15:30:30.669Z,28.10
2019-06-08T15:32:58.831Z,28.30
2019-06-08T15:35:27.843Z,28.80
2019-06-08T15:37:58.477Z,29.40
2019-06-08T15:40:27.807Z,30.40
2019-06-08T15:42:58.549Z,32.00
2019-06-08T15:45:30.909Z,33.20
2019-06-08T15:47:59.246Z,34.30
2019-06-08T15:50:28.439Z,35.30
2019-06-08T15:53:00.162Z,35.60
2019-06-08T15:55:31.204Z,35.90
2019-06-08T15:57:59.575Z,36.40
2019-06-08T16:00:30.998Z,36.50
2019-06-08T16:02:59.196Z,36.40
2019-06-08T16:05:27.965Z,37.10
2019-06-08T16:07:56.762Z,38.40
2019-06-08T16:10:26.275Z,38.80
2019-06-08T16:12:55.581Z,38.50
2019-06-08T16:15:24.863Z,38.50
2019-06-08T16:17:53.726Z,39.30
2019-06-08T16:20:25.336Z,39.90
2019-06-08T16:22:54.536Z,40.50
2019-06-08T16:25:23.241Z,41.10
2019-06-08T16:27:52.018Z,41.00
2019-06-08T16:30:21.116Z,40.50
2019-06-08T16:32:49.893Z,40.80
2019-06-08T16:35:18.767Z,41.00
2019-06-08T16:37:47.537Z,41.60
2019-06-08T16:40:16.859Z,41.70
2019-06-08T16:42:45.678Z,42.20
2019-06-08T16:45:14.754Z,42.50
2019-06-08T16:47:43.983Z,42.50
2019-06-08T16:50:24.237Z,40.50
2019-06-08T16:52:43.427Z,41.40
2019-06-08T16:55:12.577Z,41.70
2019-06-08T16:57:41.445Z,42.20
2019-06-08T17:00:30.751Z,41.90
2019-06-08T17:02:41.339Z,38.30
2019-06-08T17:05:10.340Z,38.30
2019-06-08T17:07:39.764Z,38.80
2019-06-08T17:10:09.365Z,39.60
2019-06-08T17:12:39.108Z,39.70
2019-06-08T17:15:08.161Z,40.60
2019-06-08T17:17:36.901Z,40.90
2019-06-08T17:20:06.448Z,41.60
2019-06-08T17:22:36.616Z,41.60
2019-06-08T17:25:08.224Z,41.10
2019-06-08T17:27:36.866Z,39.40
2019-06-08T17:30:08.542Z,40.40
2019-06-08T17:32:38.477Z,40.60
2019-06-08T17:35:08.323Z,40.60
2019-06-08T17:37:38.058Z,39.80
2019-06-08T17:40:07.819Z,39.00
2019-06-08T17:42:37.600Z,38.10
2019-06-08T17:45:07.237Z,37.30
2019-06-08T17:47:36.353Z,36.80
2019-06-08T17:50:06.282Z,36.60
2019-06-08T17:52:35.078Z,36.40
2019-06-08T17:55:04.358Z,35.90
2019-06-08T17:57:45.770Z,35.50
2019-06-08T18:00:04.564Z,35.00
2019-06-08T18:02:37.767Z,35.10
2019-06-08T18:05:07.008Z,34.40
2019-06-08T18:07:38.494Z,33.80
2019-06-08T18:10:07.277Z,32.80
2019-06-08T18:12:41.047Z,32.40
2019-06-08T18:15:09.685Z,31.60
2019-06-08T18:17:41.984Z,31.20
2019-06-08T18:20:11.151Z,30.80
2019-06-08T18:22:42.514Z,30.80
2019-06-08T18:25:10.784Z,30.60
2019-06-08T18:27:42.370Z,30.30
2019-06-08T18:30:11.935Z,30.00
2019-06-08T18:32:42.454Z,29.70
2019-06-08T18:35:11.725Z,29.20
2019-06-08T18:37:41.392Z,28.40
2019-06-08T18:40:13.005Z,28.10
2019-06-08T18:42:43.137Z,27.60
2019-06-08T18:45:13.788Z,27.10
2019-06-08T18:47:43.754Z,26.80
2019-06-08T18:50:13.173Z,26.40
2019-06-08T18:52:44.931Z,26.20
2019-06-08T18:55:13.549Z,25.80
2019-06-08T18:57:42.740Z,25.60
2019-06-08T19:00:13.360Z,25.30
2019-06-08T19:02:44.909Z,25.10
2019-06-08T19:05:13.203Z,25.00
2019-06-08T19:07:43.248Z,24.80
2019-06-08T19:10:17.266Z,24.70
2019-06-08T19:12:48.592Z,24.50
2019-06-08T19:15:19.680Z,24.50
2019-06-08T19:17:54.309Z,24.20
2019-06-08T19:20:18.893Z,24.00
2019-06-08T19:22:53.910Z,24.00
2019-06-08T19:25:18.106Z,23.90
2019-06-08T19:27:52.343Z,23.70
2019-06-08T19:30:20.046Z,23.60
2019-06-08T19:32:51.789Z,23.40
2019-06-08T19:35:18.786Z,23.10
2019-06-08T19:37:53.268Z,23.10
2019-06-08T19:40:18.837Z,23.10
2019-06-08T19:42:55.455Z,23.10
2019-06-08T19:45:18.254Z,23.00
2019-06-08T19:47:47.024Z,22.90
2019-06-08T19:50:17.243Z,22.80
2019-06-08T19:52:50.829Z,22.70
2019-06-08T19:55:18.084Z,22.60
2019-06-08T19:57:50.578Z,22.40
2019-06-08T20:00:18.759Z,22.20
2019-06-08T20:02:52.961Z,21.90
2019-06-08T20:05:18.833Z,21.70
2019-06-08T20:07:47.639Z,21.60
2019-06-08T20:10:17.590Z,21.60
2019-06-08T20:12:48.353Z,21.50
2019-06-08T20:15:18.494Z,21.30
2019-06-08T20:17:48.908Z,21.10
2019-06-08T20:20:18.549Z,21.00
2019-06-08T20:22:50.364Z,20.90
2019-06-08T20:25:18.758Z,20.80
2019-06-08T20:27:50.317Z,20.50
2019-06-08T20:30:19.021Z,20.20
2019-06-08T20:32:50.741Z,20.30
2019-06-08T20:35:19.379Z,20.10
2019-06-08T20:37:49.886Z,20.10
2019-06-08T20:40:19.699Z,20.00
2019-06-08T20:42:51.589Z,19.90
2019-06-08T20:45:19.069Z,19.90
2019-06-08T20:47:51.922Z,19.80
2019-06-08T20:50:18.767Z,19.80
2019-06-08T20:52:49.714Z,19.70
2019-06-08T20:55:21.359Z,19.70
2019-06-08T20:57:51.253Z,19.60
2019-06-08T21:00:20.750Z,19.60
2019-06-08T21:02:51.491Z,19.50
2019-06-08T21:05:20.021Z,19.40
2019-06-08T21:07:52.863Z,19.20
2019-06-08T21:10:23.819Z,19.10
2019-06-08T21:12:52.932Z,19.10
2019-06-08T21:15:22.229Z,19.10
2019-06-08T21:17:52.613Z,18.60
2019-06-08T21:20:25.340Z,18.60
2019-06-08T21:22:56.072Z,18.70
2019-06-08T21:25:27.962Z,18.70
2019-06-08T21:27:58.385Z,18.80
2019-06-08T21:30:28.469Z,18.80
2019-06-08T21:33:00.631Z,18.50
2019-06-08T21:35:30.291Z,18.40
2019-06-08T21:38:01.151Z,18.40
2019-06-08T21:40:30.662Z,18.40
2019-06-08T21:43:01.413Z,18.30
2019-06-08T21:45:30.258Z,17.90
2019-06-08T21:48:00.436Z,17.80
2019-06-08T21:50:29.709Z,17.80
2019-06-08T21:53:00.471Z,17.90
2019-06-08T21:55:28.953Z,18.00
2019-06-08T21:58:00.355Z,18.10
2019-06-08T22:00:39.284Z,18.20
2019-06-08T22:03:00.284Z,18.20
2019-06-08T22:05:29.080Z,18.10
2019-06-08T22:07:59.726Z,18.20
2019-06-08T22:10:28.646Z,18.20
2019-06-08T22:12:59.741Z,18.20
2019-06-08T22:15:28.631Z,18.20
2019-06-08T22:18:00.117Z,18.10
2019-06-08T22:20:28.239Z,18.10
2019-06-08T22:22:59.093Z,17.50
2019-06-08T22:25:28.430Z,17.50
2019-06-08T22:27:58.393Z,17.60
2019-06-08T22:30:38.307Z,17.60
2019-06-08T22:32:59.784Z,17.50
2019-06-08T22:35:28.936Z,17.60
2019-06-08T22:38:00.679Z,17.60
2019-06-08T22:40:29.368Z,17.40
2019-06-08T22:43:00.736Z,17.30
2019-06-08T22:45:28.975Z,17.40
2019-06-08T22:48:00.534Z,17.50
2019-06-08T22:50:28.402Z,17.60
2019-06-08T22:52:59.345Z,17.60
2019-06-08T22:55:28.278Z,17.60
2019-06-08T22:57:59.888Z,17.60
2019-06-08T23:00:28.168Z,17.70
2019-06-08T23:03:01.057Z,17.60
2019-06-08T23:05:28.285Z,17.60
2019-06-08T23:07:59.947Z,17.70
2019-06-08T23:10:28.099Z,17.70
2019-06-08T23:12:59.488Z,17.70
2019-06-08T23:15:30.155Z,17.70
2019-06-08T23:18:00.590Z,17.60
2019-06-08T23:20:29.778Z,17.60
2019-06-08T23:23:00.084Z,17.60
2019-06-08T23:25:29.494Z,17.60
2019-06-08T23:27:58.303Z,17.60
2019-06-08T23:30:27.699Z,17.50
2019-06-08T23:33:00.663Z,17.50
2019-06-08T23:35:27.581Z,17.50
2019-06-08T23:37:56.979Z,17.60
2019-06-08T23:40:27.297Z,17.60
2019-06-08T23:42:58.171Z,17.60
2019-06-08T23:45:27.213Z,17.60
2019-06-08T23:47:58.410Z,17.50
2019-06-08T23:50:27.213Z,17.40
2019-06-08T23:52:56.128Z,17.40
2019-06-08T23:55:27.467Z,17.30
2019-06-08T23:57:55.921Z,17.30
